Delta Pioneer — SYIO — position and weather

sailwx.info

Track history (hours):
 
Tides and Currents Weather Stations Pressure Air Temp Water Temp Dewpoint Dewpoint Depression Visibility Wind Speed Wind Dir Waves Ship Positions

Delta Pioneer

Last reported at 2016-Feb-09 23:33 UTC. Time now 2016-Feb-10 00:30 UTC.
Position N 59°33' E 023°21'.

Length 249 m; draft 8.5 m.

Type: Ship (hazmat cat C). MMSI: 240244000.

Date/timePositionNaut miles runAvg speedWind from/ knotsBaromVisibWave heightAir tempDewpointWater temp
2016-Feb-09 23:33N 59°33' E 023°21'342 9.5
2016-Feb-08 11:33N 55°38' E 015°38'1111.0
2016-Feb-08 10:33N 55°34' E 015°19'1111.2
2016-Feb-08 09:33N 55°29' E 015°01'1111.3
2016-Feb-08 08:33N 55°25' E 014°43'1111.4
2016-Feb-08 07:33N 55°17' E 014°29'1110.9
2016-Feb-08 06:33N 55°11' E 014°13'1110.7
2016-Feb-08 05:33N 55°11' E 013°54'1010.3
2016-Feb-08 04:33N 55°12' E 013°36'1110.9
2016-Feb-08 03:33N 55°13' E 013°17'1111.3
2016-Feb-08 02:33N 55°14' E 012°57'1110.6
2016-Feb-08 01:33N 55°18' E 012°40'8 8.3
2016-Feb-08 00:33N 55°26' E 012°40'6 5.9
2016-Feb-07 23:33N 55°31' E 012°44'8 8.3
2016-Feb-07 22:33N 55°37' E 012°54'1110.9
2016-Feb-07 21:33N 55°48' E 012°48'1212.1
2016-Feb-07 20:33N 55°59' E 012°41'10 9.8
2016-Feb-07 19:33N 56°07' E 012°31'1010.0
2016-Feb-07 18:33N 56°13' E 012°16'2512.4
2016-Feb-07 16:32N 56°36' E 011°57'1312.8
2016-Feb-07 15:33N 56°48' E 011°50'1312.9
2016-Feb-07 14:33N 56°60' E 011°43'1312.7
2016-Feb-07 13:33N 57°12' E 011°35'1212.4
2016-Feb-07 12:33N 57°23' E 011°27'10 9.9
2016-Feb-07 11:33N 57°32' E 011°17'10 9.7
2016-Feb-07 10:33N 57°38' E 011°03'10 9.7
2016-Feb-07 09:33N 57°45' E 010°50'1110.7
2016-Feb-07 08:33N 57°47' E 010°30'1211.8
2016-Feb-07 07:32N 57°45' E 010°08'1211.7
2016-Feb-07 06:32N 57°43' E 009°47'1111.4
2016-Feb-07 05:33N 57°39' E 009°27'1111.6
2016-Feb-07 04:33N 57°33' E 009°08'1211.9
2016-Feb-07 03:32N 57°27' E 008°49'1212.1
2016-Feb-07 02:32N 57°20' E 008°30'1212.2
2016-Feb-07 01:32N 57°12' E 008°14'1212.3
2016-Feb-07 00:33N 57°02' E 008°02'1212.1
2016-Feb-06 23:32N 56°51' E 007°50'1211.8
2016-Feb-06 22:33N 56°41' E 007°39'1211.7
2016-Feb-06 21:32N 56°31' E 007°27'1111.7
2016-Feb-06 20:33N 56°22' E 007°16'1211.6
2016-Feb-06 19:32N 56°12' E 007°04'1211.8
2016-Feb-06 18:33N 56°02' E 006°53'1211.7
2016-Feb-06 17:32N 55°52' E 006°43'1312.7
2016-Feb-06 16:33N 55°41' E 006°32'8313.1
2016-Feb-06 10:13N 54°27' E 005°26'812.8
2016-Feb-06 09:33N 54°20' E 005°18'1313.0
2016-Feb-06 08:32N 54°12' E 004°59'1312.9
2016-Feb-06 07:31N 54°04' E 004°41'12211.9
2016-Feb-05 21:15N 52°10' E 003°29'913.3
2016-Feb-05 20:34N 52°05' E 003°41'1010.4
2016-Feb-05 19:33N 52°01' E 003°57'6 5.5
2016-Feb-05 18:32N 51°58' E 004°04'0 0.0
2016-Feb-05 17:32N 51°58' E 004°04'0 0.0
2016-Feb-05 16:32N 51°58' E 004°04'0 0.0
2016-Feb-05 15:32N 51°58' E 004°04'0 0.0
2016-Feb-05 14:32N 51°58' E 004°04'0 0.0
2016-Feb-05 13:32N 51°58' E 004°04'0 0.0
2016-Feb-05 12:32N 51°58' E 004°04'0 0.0
2016-Feb-05 11:32N 51°58' E 004°04'0 0.0
2016-Feb-05 10:32N 51°58' E 004°04'0 0.0
2016-Feb-05 09:32N 51°58' E 004°04'0 0.0
2016-Feb-05 08:32N 51°58' E 004°04'0 0.0
2016-Feb-05 07:32N 51°58' E 004°04'0 0.0
2016-Feb-05 06:32N 51°58' E 004°04'0 0.0
2016-Feb-05 05:32N 51°58' E 004°04'0 0.0
2016-Feb-05 04:29N 51°58' E 004°04'0 0.0
2016-Feb-05 03:32N 51°58' E 004°04'0 0.0
2016-Feb-05 02:32N 51°58' E 004°04'0 0.0
2016-Feb-05 01:32N 51°58' E 004°04'0 0.0
2016-Feb-05 00:29N 51°58' E 004°04'0 0.0
2016-Feb-04 23:32N 51°58' E 004°04'0 0.0
2016-Feb-04 22:29N 51°58' E 004°04'0 0.0
2016-Feb-04 21:32N 51°58' E 004°04'0 0.0
2016-Feb-04 20:32N 51°58' E 004°04'0 0.0
2016-Feb-04 19:32N 51°58' E 004°04'0 0.0
2016-Feb-04 18:32N 51°58' E 004°04'0 0.0
2016-Feb-04 17:32N 51°58' E 004°04'1 0.9
2016-Feb-04 16:33N 51°59' E 004°04'9 8.7
2016-Feb-04 15:33N 52°01' E 003°50'414 8.6
2016-Feb-02 15:33N 57°50' E 010°19'7 7.3
2016-Feb-02 14:33N 57°51' E 010°33'8 8.3
2016-Feb-02 13:33N 57°47' E 010°47'1111.3
2016-Feb-02 12:33N 57°40' E 011°03'1211.6
2016-Feb-02 11:33N 57°32' E 011°19'1111.4
2016-Feb-02 10:33N 57°22' E 011°30'122 9.8
2016-Feb-01 22:10N 55°21' E 011°02'5 7.8
2016-Feb-01 21:34N 55°17' E 011°04'10 9.6
2016-Feb-01 20:34N 55°07' E 010°59'1110.7
2016-Feb-01 19:34N 54°57' E 010°55'1111.2
2016-Feb-01 18:34N 54°46' E 010°49'9 9.3
2016-Feb-01 17:34N 54°38' E 010°55'10 9.8
2016-Feb-01 16:33N 54°36' E 011°12'1010.2
2016-Feb-01 15:34N 54°31' E 011°27'1111.4
2016-Feb-01 14:33N 54°26' E 011°45'1211.9
2016-Feb-01 13:33N 54°26' E 012°06'24 8.0
2016-Feb-01 10:34N 54°43' E 012°35'6 5.9
2016-Feb-01 09:33N 54°46' E 012°44'1010.0
2016-Feb-01 08:33N 54°50' E 012°60'1412.1
2016-Feb-01 07:21N 54°56' E 013°23'911.8
2016-Feb-01 06:33N 54°59' E 013°38'1211.9
2016-Feb-01 05:33N 55°02' E 013°58'1211.6
2016-Feb-01 04:33N 55°10' E 014°13'1212.4
2016-Feb-01 03:33N 55°20' E 014°26'1211.9
2016-Feb-01 02:33N 55°28' E 014°42'1211.7
2016-Feb-01 01:33N 55°34' E 014°60'1211.7
2016-Feb-01 00:33N 55°39' E 015°19'  
Track history (hours):
 
Tides and Currents Weather Stations Pressure Air Temp Water Temp Dewpoint Dewpoint Depression Visibility Wind Speed Wind Dir Waves Ship Positions

Delta Pioneer

Last reported at 2016-Feb-09 23:33 UTC. Time now 2016-Feb-10 00:30 UTC.
Position N 59°33' E 023°21'.

Length 249 m; draft 8.5 m.

Type: Ship (hazmat cat C). MMSI: 240244000.

Date/timePositionNaut miles runAvg speedWind from/ knotsBaromVisibWave heightAir tempDewpointWater temp
2016-Feb-09 23:33N 59°33' E 023°21'342 9.5
2016-Feb-08 11:33N 55°38' E 015°38'1111.0
2016-Feb-08 10:33N 55°34' E 015°19'1111.2
2016-Feb-08 09:33N 55°29' E 015°01'1111.3
2016-Feb-08 08:33N 55°25' E 014°43'1111.4
2016-Feb-08 07:33N 55°17' E 014°29'1110.9
2016-Feb-08 06:33N 55°11' E 014°13'1110.7
2016-Feb-08 05:33N 55°11' E 013°54'1010.3
2016-Feb-08 04:33N 55°12' E 013°36'1110.9
2016-Feb-08 03:33N 55°13' E 013°17'1111.3
2016-Feb-08 02:33N 55°14' E 012°57'1110.6
2016-Feb-08 01:33N 55°18' E 012°40'8 8.3
2016-Feb-08 00:33N 55°26' E 012°40'6 5.9
2016-Feb-07 23:33N 55°31' E 012°44'8 8.3
2016-Feb-07 22:33N 55°37' E 012°54'1110.9
2016-Feb-07 21:33N 55°48' E 012°48'1212.1
2016-Feb-07 20:33N 55°59' E 012°41'10 9.8
2016-Feb-07 19:33N 56°07' E 012°31'1010.0
2016-Feb-07 18:33N 56°13' E 012°16'2512.4
2016-Feb-07 16:32N 56°36' E 011°57'1312.8
2016-Feb-07 15:33N 56°48' E 011°50'1312.9
2016-Feb-07 14:33N 56°60' E 011°43'1312.7
2016-Feb-07 13:33N 57°12' E 011°35'1212.4
2016-Feb-07 12:33N 57°23' E 011°27'10 9.9
2016-Feb-07 11:33N 57°32' E 011°17'10 9.7
2016-Feb-07 10:33N 57°38' E 011°03'10 9.7
2016-Feb-07 09:33N 57°45' E 010°50'1110.7
2016-Feb-07 08:33N 57°47' E 010°30'1211.8
2016-Feb-07 07:32N 57°45' E 010°08'1211.7
2016-Feb-07 06:32N 57°43' E 009°47'1111.4
2016-Feb-07 05:33N 57°39' E 009°27'1111.6
2016-Feb-07 04:33N 57°33' E 009°08'1211.9
2016-Feb-07 03:32N 57°27' E 008°49'1212.1
2016-Feb-07 02:32N 57°20' E 008°30'1212.2
2016-Feb-07 01:32N 57°12' E 008°14'1212.3
2016-Feb-07 00:33N 57°02' E 008°02'1212.1
2016-Feb-06 23:32N 56°51' E 007°50'1211.8
2016-Feb-06 22:33N 56°41' E 007°39'1211.7
2016-Feb-06 21:32N 56°31' E 007°27'1111.7
2016-Feb-06 20:33N 56°22' E 007°16'1211.6
2016-Feb-06 19:32N 56°12' E 007°04'1211.8
2016-Feb-06 18:33N 56°02' E 006°53'1211.7
2016-Feb-06 17:32N 55°52' E 006°43'1312.7
2016-Feb-06 16:33N 55°41' E 006°32'8313.1
2016-Feb-06 10:13N 54°27' E 005°26'812.8
2016-Feb-06 09:33N 54°20' E 005°18'1313.0
2016-Feb-06 08:32N 54°12' E 004°59'1312.9
2016-Feb-06 07:31N 54°04' E 004°41'12211.9
2016-Feb-05 21:15N 52°10' E 003°29'913.3
2016-Feb-05 20:34N 52°05' E 003°41'1010.4
2016-Feb-05 19:33N 52°01' E 003°57'6 5.5
2016-Feb-05 18:32N 51°58' E 004°04'0 0.0
2016-Feb-05 17:32N 51°58' E 004°04'0 0.0
2016-Feb-05 16:32N 51°58' E 004°04'0 0.0
2016-Feb-05 15:32N 51°58' E 004°04'0 0.0
2016-Feb-05 14:32N 51°58' E 004°04'0 0.0
2016-Feb-05 13:32N 51°58' E 004°04'0 0.0
2016-Feb-05 12:32N 51°58' E 004°04'0 0.0
2016-Feb-05 11:32N 51°58' E 004°04'0 0.0
2016-Feb-05 10:32N 51°58' E 004°04'0 0.0
2016-Feb-05 09:32N 51°58' E 004°04'0 0.0
2016-Feb-05 08:32N 51°58' E 004°04'0 0.0
2016-Feb-05 07:32N 51°58' E 004°04'0 0.0
2016-Feb-05 06:32N 51°58' E 004°04'0 0.0
2016-Feb-05 05:32N 51°58' E 004°04'0 0.0
2016-Feb-05 04:29N 51°58' E 004°04'0 0.0
2016-Feb-05 03:32N 51°58' E 004°04'0 0.0
2016-Feb-05 02:32N 51°58' E 004°04'0 0.0
2016-Feb-05 01:32N 51°58' E 004°04'0 0.0
2016-Feb-05 00:29N 51°58' E 004°04'0 0.0
2016-Feb-04 23:32N 51°58' E 004°04'0 0.0
2016-Feb-04 22:29N 51°58' E 004°04'0 0.0
2016-Feb-04 21:32N 51°58' E 004°04'0 0.0
2016-Feb-04 20:32N 51°58' E 004°04'0 0.0
2016-Feb-04 19:32N 51°58' E 004°04'0 0.0
2016-Feb-04 18:32N 51°58' E 004°04'0 0.0
2016-Feb-04 17:32N 51°58' E 004°04'1 0.9
2016-Feb-04 16:33N 51°59' E 004°04'9 8.7
2016-Feb-04 15:33N 52°01' E 003°50'414 8.6
2016-Feb-02 15:33N 57°50' E 010°19'7 7.3
2016-Feb-02 14:33N 57°51' E 010°33'8 8.3
2016-Feb-02 13:33N 57°47' E 010°47'1111.3
2016-Feb-02 12:33N 57°40' E 011°03'1211.6
2016-Feb-02 11:33N 57°32' E 011°19'1111.4
2016-Feb-02 10:33N 57°22' E 011°30'122 9.8
2016-Feb-01 22:10N 55°21' E 011°02'5 7.8
2016-Feb-01 21:34N 55°17' E 011°04'10 9.6
2016-Feb-01 20:34N 55°07' E 010°59'1110.7
2016-Feb-01 19:34N 54°57' E 010°55'1111.2
2016-Feb-01 18:34N 54°46' E 010°49'9 9.3
2016-Feb-01 17:34N 54°38' E 010°55'10 9.8
2016-Feb-01 16:33N 54°36' E 011°12'1010.2
2016-Feb-01 15:34N 54°31' E 011°27'1111.4
2016-Feb-01 14:33N 54°26' E 011°45'1211.9
2016-Feb-01 13:33N 54°26' E 012°06'24 8.0
2016-Feb-01 10:34N 54°43' E 012°35'6 5.9
2016-Feb-01 09:33N 54°46' E 012°44'1010.0
2016-Feb-01 08:33N 54°50' E 012°60'1412.1
2016-Feb-01 07:21N 54°56' E 013°23'911.8
2016-Feb-01 06:33N 54°59' E 013°38'1211.9
2016-Feb-01 05:33N 55°02' E 013°58'1211.6
2016-Feb-01 04:33N 55°10' E 014°13'1212.4
2016-Feb-01 03:33N 55°20' E 014°26'1211.9
2016-Feb-01 02:33N 55°28' E 014°42'1211.7
2016-Feb-01 01:33N 55°34' E 014°60'1211.7
2016-Feb-01 00:33N 55°39' E 015°19'  

Dump ship's entire track history